Arroyo, PR (00714)

11:48 PM AST on August 22, 2014 (GMT -0400)
Urb. Arroyo Villages | Change Station
CLOSE
Current Station
Personal Weather Station
Location: Bo. Ancones, Arroyo, PR
Elevation: 120 ft
Nearby Weather Stations
Active Advisory: Flash Flood Watch

Elev 120 ft 17.99 °N, 66.05 °W | Updated 10 minutes ago

Rain
Rain
77.1 °F
Feels Like 78 °F
N
2.0
Wind Variable Wind from ENE
Gusts 2.0 mph

Today
High -- | Low -- °F
--% Chance of Precip.
Yesterday
High -- | Low -- °F
Precip. -- in
6:08 AM 6:45 PM
Waning Crescent, 5% visible
Pressure 29.90 in
Visibility 10.0 miles
Clouds Few 10000 ft
Heat Index 78 °F
Dew Point 76 °F
Humidity 97%
Rainfall 4.03 in
Snow Depth Not available.
UV 0 out of 12
Pollen Not available.
Air Quality Not available.
Flu Activity Not available.
METAR TJSJ 230256Z 09005KT 10SM FEW100 26/24 A2990 RMK AO2 SLP124 T02610239 51013

More Conditions Fewer Conditions

Pressure 29.90 in
Visibility 10.0 miles
Clouds Few 10000 ft
Heat Index 78 °F
Dew Point 76 °F
Humidity 97%
Rainfall 4.03 in
Snow Depth Not available.
UV 0 out of 12
Pollen Not available.
Air Quality Not available.
Flu Activity Not available.
METAR TJSJ 230256Z 09005KT 10SM FEW100 26/24 A2990 RMK AO2 SLP124 T02610239 51013

More Conditions Fewer Conditions

10-Day Weather Forecast

Almanac

Astronomy

Aug. 22, 2014 Rise Set
Actual Time 6:08 AM AST 6:45 PM AST
Civil Twilight 5:45 AM AST 7:08 PM AST
Nautical Twilight 5:19 AM AST 7:34 PM AST
Astronomical Twilight 4:53 AM AST 8:00 PM AST
Moon 3:38 AM AST (8/22) 4:43 PM AST (8/22)
Length of Visible Light 13h 22m
Length of Day
12h 37m
Tomorrow will be 0m 56s shorter.
Waning Crescent, 5% of the Moon is Illuminated
Today
Waning Crescent
Aug 25
New
Sep 2
First Quarter
Sep 8
Full
Sep 15
Last Quarter

Community

WunderPhotos

Upload Photos

1,746,352 photos uploaded!

WunderBlogs® & News

Nearby

Snow Depth

Station Depth Elevation
No new snow has been reported.

Earthquake Activity

City Distance Mag. Time & Date
No recent earthquake activity has been reported nearby.
Minimum magnitude displayed is 2.5.

Coastal Water Temperatures

Place Temperature
Magueyes Islands, PR 84.9 °F
Yabucoa Harbor, PR 80.1 °F

Nearby Weather Stations